sensor_id;sensor_type;location;lat;lon;timestamp;P1;durP1;ratioP1;P2;durP2;ratioP2
83115;SDS011;72996;40.206;44.498;2024-01-16T00:01:37;20.35;;;11.82;;
83115;SDS011;72996;40.206;44.498;2024-01-16T00:04:07;27.88;;;14.55;;
83115;SDS011;72996;40.206;44.498;2024-01-16T00:06:33;31.60;;;21.13;;
83115;SDS011;72996;40.206;44.498;2024-01-16T00:08:59;26.92;;;18.05;;
83115;SDS011;72996;40.206;44.498;2024-01-16T00:11:24;28.35;;;18.20;;
83115;SDS011;72996;40.206;44.498;2024-01-16T00:13:50;24.77;;;14.43;;
83115;SDS011;72996;40.206;44.498;2024-01-16T00:16:15;23.02;;;13.63;;
83115;SDS011;72996;40.206;44.498;2024-01-16T00:18:41;22.73;;;10.80;;
83115;SDS011;72996;40.206;44.498;2024-01-16T00:21:07;22.55;;;10.18;;
83115;SDS011;72996;40.206;44.498;2024-01-16T00:23:32;22.65;;;9.07;;
83115;SDS011;72996;40.206;44.498;2024-01-16T00:25:58;20.67;;;8.90;;
83115;SDS011;72996;40.206;44.498;2024-01-16T00:28:24;18.55;;;9.23;;
83115;SDS011;72996;40.206;44.498;2024-01-16T00:30:49;18.38;;;8.68;;
83115;SDS011;72996;40.206;44.498;2024-01-16T00:33:15;18.23;;;8.48;;
83115;SDS011;72996;40.206;44.498;2024-01-16T00:35:41;18.13;;;8.10;;
83115;SDS011;72996;40.206;44.498;2024-01-16T00:38:06;19.77;;;8.77;;
83115;SDS011;72996;40.206;44.498;2024-01-16T00:40:32;17.52;;;8.32;;
83115;SDS011;72996;40.206;44.498;2024-01-16T00:42:57;16.95;;;7.70;;
83115;SDS011;72996;40.206;44.498;2024-01-16T00:45:23;19.85;;;8.88;;
83115;SDS011;72996;40.206;44.498;2024-01-16T00:47:49;20.15;;;8.02;;
83115;SDS011;72996;40.206;44.498;2024-01-16T00:50:14;16.63;;;7.93;;
83115;SDS011;72996;40.206;44.498;2024-01-16T00:52:40;19.40;;;9.32;;
83115;SDS011;72996;40.206;44.498;2024-01-16T00:55:06;19.75;;;9.13;;
83115;SDS011;72996;40.206;44.498;2024-01-16T00:57:31;19.05;;;8.75;;
83115;SDS011;72996;40.206;44.498;2024-01-16T00:59:57;17.83;;;8.25;;
83115;SDS011;72996;40.206;44.498;2024-01-16T01:02:23;17.88;;;8.05;;
83115;SDS011;72996;40.206;44.498;2024-01-16T01:04:48;17.40;;;8.63;;
83115;SDS011;72996;40.206;44.498;2024-01-16T01:07:14;19.67;;;8.70;;
83115;SDS011;72996;40.206;44.498;2024-01-16T01:09:40;19.33;;;9.45;;
83115;SDS011;72996;40.206;44.498;2024-01-16T01:12:06;19.92;;;8.98;;
83115;SDS011;72996;40.206;44.498;2024-01-16T01:14:32;18.30;;;8.80;;
83115;SDS011;72996;40.206;44.498;2024-01-16T01:16:58;19.63;;;8.52;;
83115;SDS011;72996;40.206;44.498;2024-01-16T01:19:24;19.30;;;8.82;;
83115;SDS011;72996;40.206;44.498;2024-01-16T01:21:50;19.30;;;8.85;;
83115;SDS011;72996;40.206;44.498;2024-01-16T01:24:16;21.35;;;9.45;;
83115;SDS011;72996;40.206;44.498;2024-01-16T01:26:44;20.95;;;9.45;;
83115;SDS011;72996;40.206;44.498;2024-01-16T01:29:10;22.55;;;9.75;;
83115;SDS011;72996;40.206;44.498;2024-01-16T01:31:36;20.55;;;9.45;;
83115;SDS011;72996;40.206;44.498;2024-01-16T01:34:02;21.58;;;9.23;;
83115;SDS011;72996;40.206;44.498;2024-01-16T01:36:28;22.48;;;9.70;;
83115;SDS011;72996;40.206;44.498;2024-01-16T01:38:53;21.42;;;9.50;;
83115;SDS011;72996;40.206;44.498;2024-01-16T01:41:19;22.77;;;9.80;;
83115;SDS011;72996;40.206;44.498;2024-01-16T01:43:44;19.27;;;9.32;;
83115;SDS011;72996;40.206;44.498;2024-01-16T01:46:14;21.27;;;9.05;;
83115;SDS011;72996;40.206;44.498;2024-01-16T01:48:42;21.55;;;9.30;;
83115;SDS011;72996;40.206;44.498;2024-01-16T01:51:10;21.08;;;9.00;;
83115;SDS011;72996;40.206;44.498;2024-01-16T01:53:38;22.60;;;9.05;;
83115;SDS011;72996;40.206;44.498;2024-01-16T01:56:06;18.40;;;9.45;;
83115;SDS011;72996;40.206;44.498;2024-01-16T01:58:36;21.90;;;9.35;;
83115;SDS011;72996;40.206;44.498;2024-01-16T02:01:05;21.17;;;9.02;;
83115;SDS011;72996;40.206;44.498;2024-01-16T02:03:41;19.20;;;8.52;;
83115;SDS011;72996;40.206;44.498;2024-01-16T02:06:09;23.05;;;10.25;;
83115;SDS011;72996;40.206;44.498;2024-01-16T02:08:36;23.55;;;10.60;;
83115;SDS011;72996;40.206;44.498;2024-01-16T02:11:02;22.13;;;10.88;;
83115;SDS011;72996;40.206;44.498;2024-01-16T02:13:28;23.40;;;10.35;;
83115;SDS011;72996;40.206;44.498;2024-01-16T02:15:53;25.83;;;11.95;;
83115;SDS011;72996;40.206;44.498;2024-01-16T02:18:19;26.88;;;12.45;;
83115;SDS011;72996;40.206;44.498;2024-01-16T02:20:45;27.92;;;12.82;;
83115;SDS011;72996;40.206;44.498;2024-01-16T02:23:13;29.42;;;14.40;;
83115;SDS011;72996;40.206;44.498;2024-01-16T02:25:40;28.95;;;13.73;;
83115;SDS011;72996;40.206;44.498;2024-01-16T02:28:06;28.63;;;13.18;;
83115;SDS011;72996;40.206;44.498;2024-01-16T02:30:32;29.02;;;14.27;;
83115;SDS011;72996;40.206;44.498;2024-01-16T02:32:59;34.15;;;15.20;;
83115;SDS011;72996;40.206;44.498;2024-01-16T02:35:24;30.65;;;14.23;;
83115;SDS011;72996;40.206;44.498;2024-01-16T02:37:50;29.73;;;14.18;;
83115;SDS011;72996;40.206;44.498;2024-01-16T02:40:16;37.50;;;18.52;;
83115;SDS011;72996;40.206;44.498;2024-01-16T02:42:41;42.70;;;19.45;;
83115;SDS011;72996;40.206;44.498;2024-01-16T02:45:07;35.72;;;16.38;;
83115;SDS011;72996;40.206;44.498;2024-01-16T02:47:33;31.45;;;14.93;;
83115;SDS011;72996;40.206;44.498;2024-01-16T02:49:59;31.00;;;14.88;;
83115;SDS011;72996;40.206;44.498;2024-01-16T02:52:25;34.63;;;15.57;;
83115;SDS011;72996;40.206;44.498;2024-01-16T02:54:51;28.42;;;12.18;;
83115;SDS011;72996;40.206;44.498;2024-01-16T02:57:17;22.98;;;10.55;;
83115;SDS011;72996;40.206;44.498;2024-01-16T02:59:45;22.73;;;10.25;;
83115;SDS011;72996;40.206;44.498;2024-01-16T03:02:11;16.73;;;7.63;;
83115;SDS011;72996;40.206;44.498;2024-01-16T03:04:38;20.02;;;8.98;;
83115;SDS011;72996;40.206;44.498;2024-01-16T03:07:04;19.55;;;8.50;;
83115;SDS011;72996;40.206;44.498;2024-01-16T03:09:30;18.35;;;7.72;;
83115;SDS011;72996;40.206;44.498;2024-01-16T03:11:56;16.92;;;7.65;;
83115;SDS011;72996;40.206;44.498;2024-01-16T03:14:23;22.67;;;9.68;;
83115;SDS011;72996;40.206;44.498;2024-01-16T03:16:48;16.10;;;8.05;;
83115;SDS011;72996;40.206;44.498;2024-01-16T03:19:14;18.58;;;8.20;;
83115;SDS011;72996;40.206;44.498;2024-01-16T03:21:40;20.15;;;8.13;;
83115;SDS011;72996;40.206;44.498;2024-01-16T03:24:06;16.15;;;7.65;;
83115;SDS011;72996;40.206;44.498;2024-01-16T03:26:32;16.98;;;8.35;;
83115;SDS011;72996;40.206;44.498;2024-01-16T03:28:58;17.60;;;8.25;;
83115;SDS011;72996;40.206;44.498;2024-01-16T03:31:24;17.80;;;8.10;;
83115;SDS011;72996;40.206;44.498;2024-01-16T03:33:50;17.25;;;8.60;;
83115;SDS011;72996;40.206;44.498;2024-01-16T03:36:16;18.58;;;8.25;;
83115;SDS011;72996;40.206;44.498;2024-01-16T03:38:42;20.92;;;8.75;;
83115;SDS011;72996;40.206;44.498;2024-01-16T03:41:08;22.13;;;9.75;;
83115;SDS011;72996;40.206;44.498;2024-01-16T03:43:36;17.20;;;8.57;;
83115;SDS011;72996;40.206;44.498;2024-01-16T03:46:02;20.17;;;9.63;;
83115;SDS011;72996;40.206;44.498;2024-01-16T03:48:28;18.15;;;8.60;;
83115;SDS011;72996;40.206;44.498;2024-01-16T03:50:54;17.00;;;8.73;;
83115;SDS011;72996;40.206;44.498;2024-01-16T03:53:21;18.45;;;8.57;;
83115;SDS011;72996;40.206;44.498;2024-01-16T03:55:47;20.75;;;10.13;;
83115;SDS011;72996;40.206;44.498;2024-01-16T03:58:15;28.98;;;13.45;;
83115;SDS011;72996;40.206;44.498;2024-01-16T04:00:41;32.72;;;14.73;;
83115;SDS011;72996;40.206;44.498;2024-01-16T04:03:07;31.25;;;15.20;;
83115;SDS011;72996;40.206;44.498;2024-01-16T04:05:33;28.10;;;13.60;;
83115;SDS011;72996;40.206;44.498;2024-01-16T04:07:59;29.92;;;13.57;;
83115;SDS011;72996;40.206;44.498;2024-01-16T04:10:24;36.30;;;15.98;;
83115;SDS011;72996;40.206;44.498;2024-01-16T04:12:50;32.05;;;15.13;;
83115;SDS011;72996;40.206;44.498;2024-01-16T04:15:15;33.22;;;15.10;;
83115;SDS011;72996;40.206;44.498;2024-01-16T04:17:41;32.38;;;15.05;;
83115;SDS011;72996;40.206;44.498;2024-01-16T04:20:07;35.83;;;15.60;;
83115;SDS011;72996;40.206;44.498;2024-01-16T04:22:34;34.15;;;14.80;;
83115;SDS011;72996;40.206;44.498;2024-01-16T04:25:00;32.15;;;14.95;;
83115;SDS011;72996;40.206;44.498;2024-01-16T04:27:26;32.50;;;15.80;;
83115;SDS011;72996;40.206;44.498;2024-01-16T04:29:52;31.20;;;15.50;;
83115;SDS011;72996;40.206;44.498;2024-01-16T04:32:18;33.85;;;15.40;;
83115;SDS011;72996;40.206;44.498;2024-01-16T04:34:44;34.92;;;15.88;;
83115;SDS011;72996;40.206;44.498;2024-01-16T04:37:09;35.53;;;16.88;;
83115;SDS011;72996;40.206;44.498;2024-01-16T04:39:35;37.03;;;16.48;;
83115;SDS011;72996;40.206;44.498;2024-01-16T04:42:01;35.95;;;16.15;;
83115;SDS011;72996;40.206;44.498;2024-01-16T04:44:26;37.38;;;16.75;;
83115;SDS011;72996;40.206;44.498;2024-01-16T04:46:52;45.58;;;18.63;;
83115;SDS011;72996;40.206;44.498;2024-01-16T04:49:18;41.45;;;18.65;;
83115;SDS011;72996;40.206;44.498;2024-01-16T04:51:43;44.33;;;18.23;;
83115;SDS011;72996;40.206;44.498;2024-01-16T04:54:10;37.95;;;17.50;;
83115;SDS011;72996;40.206;44.498;2024-01-16T04:56:36;40.60;;;17.88;;
83115;SDS011;72996;40.206;44.498;2024-01-16T04:59:02;41.58;;;18.88;;
83115;SDS011;72996;40.206;44.498;2024-01-16T05:01:27;40.70;;;18.00;;
83115;SDS011;72996;40.206;44.498;2024-01-16T05:03:53;39.90;;;17.13;;
83115;SDS011;72996;40.206;44.498;2024-01-16T05:06:19;42.65;;;18.65;;
83115;SDS011;72996;40.206;44.498;2024-01-16T05:08:46;48.45;;;18.65;;
83115;SDS011;72996;40.206;44.498;2024-01-16T05:11:12;41.60;;;18.52;;
83115;SDS011;72996;40.206;44.498;2024-01-16T05:13:37;40.78;;;17.27;;
83115;SDS011;72996;40.206;44.498;2024-01-16T05:16:03;42.88;;;18.88;;
83115;SDS011;72996;40.206;44.498;2024-01-16T05:18:29;41.65;;;18.77;;
83115;SDS011;72996;40.206;44.498;2024-01-16T05:20:55;39.63;;;17.85;;
83115;SDS011;72996;40.206;44.498;2024-01-16T05:23:21;43.17;;;19.42;;
83115;SDS011;72996;40.206;44.498;2024-01-16T05:25:47;41.72;;;17.75;;
83115;SDS011;72996;40.206;44.498;2024-01-16T05:28:13;45.63;;;19.15;;
83115;SDS011;72996;40.206;44.498;2024-01-16T05:30:38;46.88;;;19.17;;
83115;SDS011;72996;40.206;44.498;2024-01-16T05:33:04;39.35;;;18.85;;
83115;SDS011;72996;40.206;44.498;2024-01-16T05:35:30;46.55;;;18.98;;
83115;SDS011;72996;40.206;44.498;2024-01-16T05:37:55;45.03;;;21.02;;
83115;SDS011;72996;40.206;44.498;2024-01-16T05:40:22;47.08;;;19.38;;
83115;SDS011;72996;40.206;44.498;2024-01-16T05:42:48;49.55;;;21.70;;
83115;SDS011;72996;40.206;44.498;2024-01-16T05:45:15;53.78;;;22.90;;
83115;SDS011;72996;40.206;44.498;2024-01-16T05:47:40;46.20;;;20.50;;
83115;SDS011;72996;40.206;44.498;2024-01-16T05:50:06;49.65;;;20.77;;
83115;SDS011;72996;40.206;44.498;2024-01-16T05:52:32;49.80;;;21.00;;
83115;SDS011;72996;40.206;44.498;2024-01-16T05:54:58;49.40;;;21.30;;
83115;SDS011;72996;40.206;44.498;2024-01-16T05:57:25;51.08;;;21.75;;
83115;SDS011;72996;40.206;44.498;2024-01-16T05:59:51;50.13;;;21.60;;
83115;SDS011;72996;40.206;44.498;2024-01-16T06:02:17;51.72;;;22.35;;
83115;SDS011;72996;40.206;44.498;2024-01-16T06:04:43;50.13;;;22.42;;
83115;SDS011;72996;40.206;44.498;2024-01-16T06:07:08;50.13;;;21.10;;
83115;SDS011;72996;40.206;44.498;2024-01-16T06:09:40;56.67;;;23.38;;
83115;SDS011;72996;40.206;44.498;2024-01-16T06:12:07;51.95;;;21.90;;
83115;SDS011;72996;40.206;44.498;2024-01-16T06:14:33;56.03;;;22.40;;
83115;SDS011;72996;40.206;44.498;2024-01-16T06:17:00;53.92;;;23.35;;
83115;SDS011;72996;40.206;44.498;2024-01-16T06:19:26;55.83;;;22.98;;
83115;SDS011;72996;40.206;44.498;2024-01-16T06:21:52;53.58;;;22.98;;
83115;SDS011;72996;40.206;44.498;2024-01-16T06:24:18;50.30;;;23.15;;
83115;SDS011;72996;40.206;44.498;2024-01-16T06:26:44;50.05;;;22.15;;
83115;SDS011;72996;40.206;44.498;2024-01-16T06:29:09;47.10;;;21.67;;
83115;SDS011;72996;40.206;44.498;2024-01-16T06:31:35;56.00;;;22.58;;
83115;SDS011;72996;40.206;44.498;2024-01-16T06:34:01;57.47;;;26.92;;
83115;SDS011;72996;40.206;44.498;2024-01-16T06:36:26;40.38;;;17.38;;
83115;SDS011;72996;40.206;44.498;2024-01-16T06:38:52;37.53;;;16.55;;
83115;SDS011;72996;40.206;44.498;2024-01-16T06:41:18;31.23;;;14.73;;
83115;SDS011;72996;40.206;44.498;2024-01-16T06:43:44;31.45;;;14.23;;
83115;SDS011;72996;40.206;44.498;2024-01-16T06:46:09;39.70;;;16.50;;
83115;SDS011;72996;40.206;44.498;2024-01-16T06:48:35;41.40;;;16.70;;
83115;SDS011;72996;40.206;44.498;2024-01-16T06:51:04;45.45;;;21.05;;
83115;SDS011;72996;40.206;44.498;2024-01-16T06:53:30;41.08;;;17.77;;
83115;SDS011;72996;40.206;44.498;2024-01-16T06:55:56;54.97;;;21.55;;
83115;SDS011;72996;40.206;44.498;2024-01-16T06:58:22;48.30;;;19.92;;
83115;SDS011;72996;40.206;44.498;2024-01-16T07:00:48;49.03;;;21.42;;
83115;SDS011;72996;40.206;44.498;2024-01-16T07:03:13;42.92;;;18.58;;
83115;SDS011;72996;40.206;44.498;2024-01-16T07:05:39;49.30;;;21.00;;
83115;SDS011;72996;40.206;44.498;2024-01-16T07:08:08;49.90;;;19.45;;
83115;SDS011;72996;40.206;44.498;2024-01-16T07:10:34;52.90;;;19.75;;
83115;SDS011;72996;40.206;44.498;2024-01-16T07:13:00;51.05;;;19.65;;
83115;SDS011;72996;40.206;44.498;2024-01-16T07:15:27;43.80;;;18.40;;
83115;SDS011;72996;40.206;44.498;2024-01-16T07:17:52;37.47;;;16.77;;
83115;SDS011;72996;40.206;44.498;2024-01-16T07:20:18;38.97;;;18.00;;
83115;SDS011;72996;40.206;44.498;2024-01-16T07:22:44;48.90;;;19.30;;
83115;SDS011;72996;40.206;44.498;2024-01-16T07:25:10;46.25;;;21.70;;
83115;SDS011;72996;40.206;44.498;2024-01-16T07:27:36;46.33;;;20.15;;
83115;SDS011;72996;40.206;44.498;2024-01-16T07:30:05;49.35;;;21.27;;
83115;SDS011;72996;40.206;44.498;2024-01-16T07:32:31;45.80;;;19.15;;
83115;SDS011;72996;40.206;44.498;2024-01-16T07:34:57;42.40;;;18.27;;
83115;SDS011;72996;40.206;44.498;2024-01-16T07:37:23;40.15;;;18.95;;
83115;SDS011;72996;40.206;44.498;2024-01-16T07:39:48;30.02;;;15.07;;
83115;SDS011;72996;40.206;44.498;2024-01-16T07:42:14;25.40;;;12.18;;
83115;SDS011;72996;40.206;44.498;2024-01-16T07:44:40;29.80;;;14.50;;
83115;SDS011;72996;40.206;44.498;2024-01-16T07:47:06;31.25;;;14.27;;
83115;SDS011;72996;40.206;44.498;2024-01-16T07:49:31;22.48;;;10.98;;
83115;SDS011;72996;40.206;44.498;2024-01-16T07:51:57;27.38;;;12.90;;
83115;SDS011;72996;40.206;44.498;2024-01-16T07:54:23;24.95;;;12.48;;
83115;SDS011;72996;40.206;44.498;2024-01-16T07:56:51;29.08;;;13.40;;
83115;SDS011;72996;40.206;44.498;2024-01-16T07:59:17;28.75;;;13.52;;
83115;SDS011;72996;40.206;44.498;2024-01-16T08:01:43;34.58;;;16.23;;
83115;SDS011;72996;40.206;44.498;2024-01-16T08:04:09;35.50;;;16.75;;
83115;SDS011;72996;40.206;44.498;2024-01-16T08:06:34;31.88;;;14.98;;
83115;SDS011;72996;40.206;44.498;2024-01-16T08:09:00;34.83;;;15.90;;
83115;SDS011;72996;40.206;44.498;2024-01-16T08:11:26;40.55;;;15.57;;
83115;SDS011;72996;40.206;44.498;2024-01-16T08:13:52;38.85;;;17.08;;
83115;SDS011;72996;40.206;44.498;2024-01-16T08:16:17;39.55;;;17.15;;
83115;SDS011;72996;40.206;44.498;2024-01-16T08:18:43;49.22;;;21.92;;
83115;SDS011;72996;40.206;44.498;2024-01-16T08:21:09;52.38;;;24.52;;
83115;SDS011;72996;40.206;44.498;2024-01-16T08:23:34;58.13;;;24.55;;
83115;SDS011;72996;40.206;44.498;2024-01-16T08:26:00;51.55;;;22.77;;
83115;SDS011;72996;40.206;44.498;2024-01-16T08:28:26;58.97;;;25.00;;
83115;SDS011;72996;40.206;44.498;2024-01-16T08:30:52;60.60;;;25.70;;
83115;SDS011;72996;40.206;44.498;2024-01-16T08:33:18;58.85;;;25.63;;
83115;SDS011;72996;40.206;44.498;2024-01-16T08:35:45;66.70;;;26.85;;
83115;SDS011;72996;40.206;44.498;2024-01-16T08:38:10;58.33;;;25.20;;
83115;SDS011;72996;40.206;44.498;2024-01-16T08:40:36;51.80;;;23.92;;
83115;SDS011;72996;40.206;44.498;2024-01-16T08:43:02;55.15;;;24.63;;
83115;SDS011;72996;40.206;44.498;2024-01-16T08:45:29;56.63;;;25.15;;
83115;SDS011;72996;40.206;44.498;2024-01-16T08:47:54;57.67;;;25.92;;
83115;SDS011;72996;40.206;44.498;2024-01-16T08:50:20;61.30;;;26.52;;
83115;SDS011;72996;40.206;44.498;2024-01-16T08:52:46;66.13;;;29.45;;
83115;SDS011;72996;40.206;44.498;2024-01-16T08:55:12;76.65;;;31.05;;
83115;SDS011;72996;40.206;44.498;2024-01-16T08:57:37;69.05;;;30.23;;
83115;SDS011;72996;40.206;44.498;2024-01-16T09:00:06;66.72;;;31.27;;
83115;SDS011;72996;40.206;44.498;2024-01-16T09:02:35;69.65;;;30.05;;
83115;SDS011;72996;40.206;44.498;2024-01-16T09:05:01;68.53;;;28.38;;
83115;SDS011;72996;40.206;44.498;2024-01-16T09:07:27;62.78;;;28.98;;
83115;SDS011;72996;40.206;44.498;2024-01-16T09:09:53;68.43;;;29.40;;
83115;SDS011;72996;40.206;44.498;2024-01-16T09:12:19;81.30;;;32.00;;
83115;SDS011;72996;40.206;44.498;2024-01-16T09:14:44;64.65;;;28.42;;
83115;SDS011;72996;40.206;44.498;2024-01-16T09:17:10;68.07;;;29.83;;
83115;SDS011;72996;40.206;44.498;2024-01-16T09:19:36;64.78;;;29.50;;
83115;SDS011;72996;40.206;44.498;2024-01-16T09:22:02;72.65;;;30.58;;
83115;SDS011;72996;40.206;44.498;2024-01-16T09:24:29;77.53;;;32.42;;
83115;SDS011;72996;40.206;44.498;2024-01-16T09:26:54;64.22;;;30.25;;
83115;SDS011;72996;40.206;44.498;2024-01-16T09:29:20;79.65;;;32.40;;
83115;SDS011;72996;40.206;44.498;2024-01-16T09:31:47;79.57;;;37.10;;
83115;SDS011;72996;40.206;44.498;2024-01-16T09:34:13;85.22;;;31.83;;
83115;SDS011;72996;40.206;44.498;2024-01-16T09:36:39;75.47;;;33.95;;
83115;SDS011;72996;40.206;44.498;2024-01-16T09:39:05;78.20;;;31.65;;
83115;SDS011;72996;40.206;44.498;2024-01-16T09:41:34;81.53;;;32.85;;
83115;SDS011;72996;40.206;44.498;2024-01-16T09:44:00;76.75;;;32.47;;
83115;SDS011;72996;40.206;44.498;2024-01-16T09:46:26;79.75;;;34.45;;
83115;SDS011;72996;40.206;44.498;2024-01-16T09:48:55;69.70;;;32.13;;
83115;SDS011;72996;40.206;44.498;2024-01-16T09:51:21;72.57;;;33.63;;
83115;SDS011;72996;40.206;44.498;2024-01-16T09:53:48;85.55;;;34.40;;
83115;SDS011;72996;40.206;44.498;2024-01-16T09:56:14;74.70;;;35.33;;
83115;SDS011;72996;40.206;44.498;2024-01-16T09:58:42;83.93;;;35.47;;
83115;SDS011;72996;40.206;44.498;2024-01-16T10:01:11;89.45;;;37.53;;
83115;SDS011;72996;40.206;44.498;2024-01-16T10:03:38;82.72;;;37.47;;
83115;SDS011;72996;40.206;44.498;2024-01-16T10:06:06;84.60;;;36.30;;
83115;SDS011;72996;40.206;44.498;2024-01-16T10:08:32;79.40;;;35.90;;
83115;SDS011;72996;40.206;44.498;2024-01-16T10:10:59;83.70;;;36.38;;
83115;SDS011;72996;40.206;44.498;2024-01-16T10:13:25;76.85;;;35.97;;
83115;SDS011;72996;40.206;44.498;2024-01-16T10:15:51;74.75;;;34.67;;
83115;SDS011;72996;40.206;44.498;2024-01-16T10:18:26;90.65;;;35.53;;
83115;SDS011;72996;40.206;44.498;2024-01-16T10:20:56;80.72;;;35.70;;
83115;SDS011;72996;40.206;44.498;2024-01-16T10:23:22;95.93;;;39.70;;
83115;SDS011;72996;40.206;44.498;2024-01-16T10:26:05;83.97;;;37.42;;
83115;SDS011;72996;40.206;44.498;2024-01-16T10:28:40;91.78;;;36.83;;
83115;SDS011;72996;40.206;44.498;2024-01-16T10:31:07;76.65;;;36.88;;
83115;SDS011;72996;40.206;44.498;2024-01-16T10:33:34;86.93;;;37.92;;
83115;SDS011;72996;40.206;44.498;2024-01-16T10:36:07;81.43;;;35.25;;
83115;SDS011;72996;40.206;44.498;2024-01-16T10:38:40;96.53;;;42.22;;
83115;SDS011;72996;40.206;44.498;2024-01-16T10:41:09;74.05;;;35.97;;
83115;SDS011;72996;40.206;44.498;2024-01-16T10:43:35;78.18;;;35.50;;
83115;SDS011;72996;40.206;44.498;2024-01-16T10:48:35;75.78;;;32.95;;
83115;SDS011;72996;40.206;44.498;2024-01-16T10:51:01;73.35;;;31.27;;
83115;SDS011;72996;40.206;44.498;2024-01-16T10:53:28;50.05;;;24.58;;
83115;SDS011;72996;40.206;44.498;2024-01-16T10:55:57;41.67;;;22.98;;
83115;SDS011;72996;40.206;44.498;2024-01-16T10:58:25;48.42;;;23.95;;
83115;SDS011;72996;40.206;44.498;2024-01-16T11:00:53;54.13;;;25.73;;
83115;SDS011;72996;40.206;44.498;2024-01-16T11:03:25;51.50;;;26.17;;
83115;SDS011;72996;40.206;44.498;2024-01-16T11:05:59;54.40;;;25.42;;
83115;SDS011;72996;40.206;44.498;2024-01-16T11:08:27;54.47;;;26.25;;
83115;SDS011;72996;40.206;44.498;2024-01-16T11:10:57;52.13;;;27.63;;
83115;SDS011;72996;40.206;44.498;2024-01-16T11:13:24;61.08;;;29.98;;
83115;SDS011;72996;40.206;44.498;2024-01-16T11:15:50;58.63;;;30.02;;
83115;SDS011;72996;40.206;44.498;2024-01-16T11:18:16;78.57;;;34.75;;
83115;SDS011;72996;40.206;44.498;2024-01-16T11:20:44;75.85;;;36.00;;
83115;SDS011;72996;40.206;44.498;2024-01-16T11:23:11;103.60;;;44.35;;
83115;SDS011;72996;40.206;44.498;2024-01-16T11:25:38;99.20;;;40.53;;
83115;SDS011;72996;40.206;44.498;2024-01-16T11:28:08;97.22;;;40.13;;
83115;SDS011;72996;40.206;44.498;2024-01-16T11:30:38;89.50;;;38.17;;
83115;SDS011;72996;40.206;44.498;2024-01-16T11:33:05;93.97;;;39.70;;
83115;SDS011;72996;40.206;44.498;2024-01-16T11:35:37;84.03;;;36.80;;
83115;SDS011;72996;40.206;44.498;2024-01-16T11:38:14;76.50;;;34.70;;
83115;SDS011;72996;40.206;44.498;2024-01-16T11:40:42;75.95;;;34.78;;
83115;SDS011;72996;40.206;44.498;2024-01-16T11:46:03;73.70;;;34.08;;
83115;SDS011;72996;40.206;44.498;2024-01-16T11:48:30;65.72;;;31.30;;
83115;SDS011;72996;40.206;44.498;2024-01-16T11:50:56;73.13;;;32.60;;
83115;SDS011;72996;40.206;44.498;2024-01-16T11:53:55;72.68;;;30.85;;
83115;SDS011;72996;40.206;44.498;2024-01-16T11:58:48;67.93;;;30.75;;
83115;SDS011;72996;40.206;44.498;2024-01-16T12:01:36;74.32;;;32.10;;
83115;SDS011;72996;40.206;44.498;2024-01-16T12:04:05;73.65;;;32.25;;
83115;SDS011;72996;40.206;44.498;2024-01-16T12:06:31;66.45;;;30.70;;
83115;SDS011;72996;40.206;44.498;2024-01-16T12:09:13;64.50;;;31.00;;
83115;SDS011;72996;40.206;44.498;2024-01-16T12:11:40;66.25;;;30.67;;
83115;SDS011;72996;40.206;44.498;2024-01-16T12:14:12;75.35;;;31.55;;
83115;SDS011;72996;40.206;44.498;2024-01-16T12:16:38;69.32;;;32.03;;
83115;SDS011;72996;40.206;44.498;2024-01-16T12:19:07;74.82;;;31.73;;
83115;SDS011;72996;40.206;44.498;2024-01-16T12:24:05;84.30;;;36.25;;
83115;SDS011;72996;40.206;44.498;2024-01-16T12:26:31;75.97;;;32.05;;
83115;SDS011;72996;40.206;44.498;2024-01-16T12:28:57;74.93;;;32.15;;
83115;SDS011;72996;40.206;44.498;2024-01-16T12:31:23;76.00;;;31.52;;
83115;SDS011;72996;40.206;44.498;2024-01-16T12:33:52;63.75;;;29.85;;
83115;SDS011;72996;40.206;44.498;2024-01-16T12:36:18;67.30;;;30.92;;
83115;SDS011;72996;40.206;44.498;2024-01-16T12:38:44;72.38;;;30.70;;
83115;SDS011;72996;40.206;44.498;2024-01-16T12:41:10;73.22;;;33.17;;
83115;SDS011;72996;40.206;44.498;2024-01-16T12:43:37;70.78;;;31.23;;
83115;SDS011;72996;40.206;44.498;2024-01-16T12:46:03;71.85;;;30.55;;
83115;SDS011;72996;40.206;44.498;2024-01-16T12:48:29;72.43;;;34.72;;
83115;SDS011;72996;40.206;44.498;2024-01-16T12:51:01;69.60;;;30.83;;
83115;SDS011;72996;40.206;44.498;2024-01-16T12:53:28;68.50;;;31.05;;
83115;SDS011;72996;40.206;44.498;2024-01-16T12:55:57;71.30;;;29.00;;
83115;SDS011;72996;40.206;44.498;2024-01-16T12:58:35;72.07;;;34.53;;
83115;SDS011;72996;40.206;44.498;2024-01-16T13:03:56;67.85;;;29.95;;
83115;SDS011;72996;40.206;44.498;2024-01-16T13:06:22;65.65;;;29.52;;
83115;SDS011;72996;40.206;44.498;2024-01-16T13:08:48;72.25;;;30.08;;
83115;SDS011;72996;40.206;44.498;2024-01-16T13:11:14;76.03;;;31.25;;
83115;SDS011;72996;40.206;44.498;2024-01-16T13:13:44;71.85;;;31.88;;
83115;SDS011;72996;40.206;44.498;2024-01-16T13:16:10;77.47;;;33.78;;
83115;SDS011;72996;40.206;44.498;2024-01-16T13:18:36;67.68;;;30.25;;
83115;SDS011;72996;40.206;44.498;2024-01-16T13:21:02;75.88;;;32.00;;
83115;SDS011;72996;40.206;44.498;2024-01-16T13:23:28;76.22;;;29.17;;
83115;SDS011;72996;40.206;44.498;2024-01-16T13:25:54;73.55;;;31.52;;
83115;SDS011;72996;40.206;44.498;2024-01-16T13:28:20;70.32;;;30.20;;
83115;SDS011;72996;40.206;44.498;2024-01-16T13:30:47;72.80;;;30.92;;
83115;SDS011;72996;40.206;44.498;2024-01-16T13:33:14;80.28;;;33.33;;
83115;SDS011;72996;40.206;44.498;2024-01-16T13:35:44;68.47;;;30.92;;
83115;SDS011;72996;40.206;44.498;2024-01-16T13:38:14;76.30;;;33.13;;
83115;SDS011;72996;40.206;44.498;2024-01-16T13:40:44;79.20;;;33.83;;
83115;SDS011;72996;40.206;44.498;2024-01-16T13:43:10;84.05;;;34.22;;
83115;SDS011;72996;40.206;44.498;2024-01-16T13:45:37;77.22;;;33.55;;
83115;SDS011;72996;40.206;44.498;2024-01-16T13:48:03;69.72;;;31.27;;
83115;SDS011;72996;40.206;44.498;2024-01-16T13:50:31;68.65;;;30.10;;
83115;SDS011;72996;40.206;44.498;2024-01-16T13:52:58;74.22;;;31.42;;
83115;SDS011;72996;40.206;44.498;2024-01-16T13:55:24;72.65;;;31.95;;
83115;SDS011;72996;40.206;44.498;2024-01-16T13:57:50;78.07;;;33.85;;
83115;SDS011;72996;40.206;44.498;2024-01-16T14:00:16;81.68;;;37.50;;
83115;SDS011;72996;40.206;44.498;2024-01-16T14:02:43;86.28;;;34.72;;
83115;SDS011;72996;40.206;44.498;2024-01-16T14:05:10;79.75;;;33.45;;
83115;SDS011;72996;40.206;44.498;2024-01-16T14:07:40;73.57;;;30.70;;
83115;SDS011;72996;40.206;44.498;2024-01-16T14:10:10;66.80;;;30.77;;
83115;SDS011;72996;40.206;44.498;2024-01-16T14:12:37;63.58;;;28.35;;
83115;SDS011;72996;40.206;44.498;2024-01-16T14:15:03;61.60;;;29.20;;
83115;SDS011;72996;40.206;44.498;2024-01-16T14:17:34;75.13;;;33.72;;
83115;SDS011;72996;40.206;44.498;2024-01-16T14:20:00;68.53;;;31.42;;
83115;SDS011;72996;40.206;44.498;2024-01-16T14:22:27;70.03;;;30.08;;